sensor_id;sensor_type;location;lat;lon;timestamp;P1;durP1;ratioP1;P2;durP2;ratioP2
7324;SDS011;3703;48.016;7.802;2023-06-14T00:00:54;7.70;;;5.03;;
7324;SDS011;3703;48.016;7.802;2023-06-14T00:03:22;6.13;;;4.87;;
7324;SDS011;3703;48.016;7.802;2023-06-14T00:05:49;6.17;;;4.80;;
7324;SDS011;3703;48.016;7.802;2023-06-14T00:08:17;5.90;;;4.57;;
7324;SDS011;3703;48.016;7.802;2023-06-14T00:10:46;5.40;;;4.40;;
7324;SDS011;3703;48.016;7.802;2023-06-14T00:13:15;7.50;;;4.30;;
7324;SDS011;3703;48.016;7.802;2023-06-14T00:15:42;6.07;;;4.17;;
7324;SDS011;3703;48.016;7.802;2023-06-14T00:18:10;5.00;;;4.27;;
7324;SDS011;3703;48.016;7.802;2023-06-14T00:20:37;5.27;;;4.07;;
7324;SDS011;3703;48.016;7.802;2023-06-14T00:23:06;5.53;;;4.50;;
7324;SDS011;3703;48.016;7.802;2023-06-14T00:25:34;5.37;;;4.40;;
7324;SDS011;3703;48.016;7.802;2023-06-14T00:28:01;5.10;;;4.03;;
7324;SDS011;3703;48.016;7.802;2023-06-14T00:30:30;5.93;;;4.30;;
7324;SDS011;3703;48.016;7.802;2023-06-14T00:32:57;4.40;;;4.00;;
7324;SDS011;3703;48.016;7.802;2023-06-14T00:35:25;5.93;;;5.03;;
7324;SDS011;3703;48.016;7.802;2023-06-14T00:37:52;5.43;;;4.20;;
7324;SDS011;3703;48.016;7.802;2023-06-14T00:40:20;6.27;;;4.30;;
7324;SDS011;3703;48.016;7.802;2023-06-14T00:42:47;7.37;;;4.37;;
7324;SDS011;3703;48.016;7.802;2023-06-14T00:45:15;5.93;;;4.07;;
7324;SDS011;3703;48.016;7.802;2023-06-14T00:47:43;4.43;;;3.87;;
7324;SDS011;3703;48.016;7.802;2023-06-14T00:50:12;5.80;;;4.60;;
7324;SDS011;3703;48.016;7.802;2023-06-14T00:52:40;4.80;;;4.27;;
7324;SDS011;3703;48.016;7.802;2023-06-14T00:55:08;5.57;;;4.27;;
7324;SDS011;3703;48.016;7.802;2023-06-14T00:57:35;5.70;;;4.10;;
7324;SDS011;3703;48.016;7.802;2023-06-14T01:00:05;5.17;;;4.63;;
7324;SDS011;3703;48.016;7.802;2023-06-14T01:02:35;5.73;;;4.53;;
7324;SDS011;3703;48.016;7.802;2023-06-14T01:05:04;6.17;;;4.37;;
7324;SDS011;3703;48.016;7.802;2023-06-14T01:07:34;5.40;;;4.50;;
7324;SDS011;3703;48.016;7.802;2023-06-14T01:10:28;5.00;;;4.53;;
7324;SDS011;3703;48.016;7.802;2023-06-14T01:13:05;7.40;;;4.30;;
7324;SDS011;3703;48.016;7.802;2023-06-14T01:15:38;5.27;;;4.13;;
7324;SDS011;3703;48.016;7.802;2023-06-14T01:18:07;5.20;;;4.20;;
7324;SDS011;3703;48.016;7.802;2023-06-14T01:20:44;5.43;;;4.70;;
7324;SDS011;3703;48.016;7.802;2023-06-14T01:23:16;5.33;;;4.37;;
7324;SDS011;3703;48.016;7.802;2023-06-14T01:25:43;5.77;;;4.33;;
7324;SDS011;3703;48.016;7.802;2023-06-14T01:28:12;8.33;;;4.90;;
7324;SDS011;3703;48.016;7.802;2023-06-14T01:30:42;5.77;;;4.40;;
7324;SDS011;3703;48.016;7.802;2023-06-14T01:33:13;6.47;;;4.60;;
7324;SDS011;3703;48.016;7.802;2023-06-14T01:35:42;6.27;;;4.87;;
7324;SDS011;3703;48.016;7.802;2023-06-14T01:38:11;5.93;;;4.80;;
7324;SDS011;3703;48.016;7.802;2023-06-14T01:40:41;7.57;;;4.60;;
7324;SDS011;3703;48.016;7.802;2023-06-14T01:43:10;7.50;;;4.40;;
7324;SDS011;3703;48.016;7.802;2023-06-14T01:45:40;4.93;;;4.13;;
7324;SDS011;3703;48.016;7.802;2023-06-14T01:48:08;5.33;;;4.67;;
7324;SDS011;3703;48.016;7.802;2023-06-14T01:50:35;4.93;;;4.37;;
7324;SDS011;3703;48.016;7.802;2023-06-14T01:53:03;5.57;;;4.57;;
7324;SDS011;3703;48.016;7.802;2023-06-14T01:55:33;5.83;;;4.10;;
7324;SDS011;3703;48.016;7.802;2023-06-14T01:58:05;7.50;;;4.97;;
7324;SDS011;3703;48.016;7.802;2023-06-14T02:00:32;5.93;;;4.50;;
7324;SDS011;3703;48.016;7.802;2023-06-14T02:02:59;4.40;;;4.00;;
7324;SDS011;3703;48.016;7.802;2023-06-14T02:05:27;8.10;;;4.77;;
7324;SDS011;3703;48.016;7.802;2023-06-14T02:07:55;5.47;;;4.80;;
7324;SDS011;3703;48.016;7.802;2023-06-14T02:10:22;6.43;;;4.90;;
7324;SDS011;3703;48.016;7.802;2023-06-14T02:12:50;5.93;;;4.27;;
7324;SDS011;3703;48.016;7.802;2023-06-14T02:15:19;4.40;;;4.00;;
7324;SDS011;3703;48.016;7.802;2023-06-14T02:17:47;7.23;;;4.60;;
7324;SDS011;3703;48.016;7.802;2023-06-14T02:20:15;6.17;;;4.67;;
7324;SDS011;3703;48.016;7.802;2023-06-14T02:22:43;5.00;;;4.50;;
7324;SDS011;3703;48.016;7.802;2023-06-14T02:25:11;6.23;;;4.53;;
7324;SDS011;3703;48.016;7.802;2023-06-14T02:27:38;5.70;;;4.73;;
7324;SDS011;3703;48.016;7.802;2023-06-14T02:30:06;7.00;;;5.47;;
7324;SDS011;3703;48.016;7.802;2023-06-14T02:32:36;5.60;;;4.13;;
7324;SDS011;3703;48.016;7.802;2023-06-14T02:35:03;5.17;;;4.27;;
7324;SDS011;3703;48.016;7.802;2023-06-14T02:37:32;5.47;;;4.70;;
7324;SDS011;3703;48.016;7.802;2023-06-14T02:40:00;5.53;;;4.80;;
7324;SDS011;3703;48.016;7.802;2023-06-14T02:42:27;7.13;;;4.83;;
7324;SDS011;3703;48.016;7.802;2023-06-14T02:44:54;4.80;;;4.33;;
7324;SDS011;3703;48.016;7.802;2023-06-14T02:47:22;5.67;;;5.00;;
7324;SDS011;3703;48.016;7.802;2023-06-14T02:49:51;6.77;;;4.40;;
7324;SDS011;3703;48.016;7.802;2023-06-14T02:52:18;6.87;;;4.47;;
7324;SDS011;3703;48.016;7.802;2023-06-14T02:54:45;6.17;;;4.53;;
7324;SDS011;3703;48.016;7.802;2023-06-14T02:57:14;5.20;;;4.40;;
7324;SDS011;3703;48.016;7.802;2023-06-14T02:59:41;8.30;;;4.80;;
7324;SDS011;3703;48.016;7.802;2023-06-14T03:02:08;6.30;;;4.83;;
7324;SDS011;3703;48.016;7.802;2023-06-14T03:04:36;6.80;;;4.70;;
7324;SDS011;3703;48.016;7.802;2023-06-14T03:07:05;4.60;;;4.10;;
7324;SDS011;3703;48.016;7.802;2023-06-14T03:09:34;5.90;;;4.87;;
7324;SDS011;3703;48.016;7.802;2023-06-14T03:12:03;5.63;;;4.60;;
7324;SDS011;3703;48.016;7.802;2023-06-14T03:14:32;5.97;;;4.67;;
7324;SDS011;3703;48.016;7.802;2023-06-14T03:17:00;6.27;;;4.57;;
7324;SDS011;3703;48.016;7.802;2023-06-14T03:19:27;5.30;;;4.50;;
7324;SDS011;3703;48.016;7.802;2023-06-14T03:21:54;7.60;;;4.63;;
7324;SDS011;3703;48.016;7.802;2023-06-14T03:24:24;12.53;;;4.90;;
7324;SDS011;3703;48.016;7.802;2023-06-14T03:26:53;6.07;;;4.53;;
7324;SDS011;3703;48.016;7.802;2023-06-14T03:29:21;7.77;;;4.97;;
7324;SDS011;3703;48.016;7.802;2023-06-14T03:31:56;5.80;;;4.63;;
7324;SDS011;3703;48.016;7.802;2023-06-14T03:34:24;5.50;;;4.67;;
7324;SDS011;3703;48.016;7.802;2023-06-14T03:36:51;7.53;;;4.87;;
7324;SDS011;3703;48.016;7.802;2023-06-14T03:39:19;9.53;;;5.07;;
7324;SDS011;3703;48.016;7.802;2023-06-14T03:41:47;11.57;;;5.13;;
7324;SDS011;3703;48.016;7.802;2023-06-14T03:44:15;9.03;;;4.97;;
7324;SDS011;3703;48.016;7.802;2023-06-14T03:46:44;5.87;;;4.70;;
7324;SDS011;3703;48.016;7.802;2023-06-14T03:49:11;6.73;;;5.03;;
7324;SDS011;3703;48.016;7.802;2023-06-14T03:51:39;7.00;;;5.03;;
7324;SDS011;3703;48.016;7.802;2023-06-14T03:54:07;6.43;;;5.30;;
7324;SDS011;3703;48.016;7.802;2023-06-14T03:56:34;6.73;;;4.90;;
7324;SDS011;3703;48.016;7.802;2023-06-14T03:59:03;9.37;;;5.23;;
7324;SDS011;3703;48.016;7.802;2023-06-14T04:01:30;6.47;;;4.63;;
7324;SDS011;3703;48.016;7.802;2023-06-14T04:03:58;8.67;;;5.00;;
7324;SDS011;3703;48.016;7.802;2023-06-14T04:06:26;5.63;;;4.60;;
7324;SDS011;3703;48.016;7.802;2023-06-14T04:08:57;8.00;;;5.27;;
7324;SDS011;3703;48.016;7.802;2023-06-14T04:11:28;5.70;;;4.03;;
7324;SDS011;3703;48.016;7.802;2023-06-14T04:13:56;6.83;;;5.00;;
7324;SDS011;3703;48.016;7.802;2023-06-14T04:16:25;8.43;;;4.80;;
7324;SDS011;3703;48.016;7.802;2023-06-14T04:18:54;9.60;;;4.70;;
7324;SDS011;3703;48.016;7.802;2023-06-14T04:21:23;6.13;;;4.83;;
7324;SDS011;3703;48.016;7.802;2023-06-14T04:23:52;6.30;;;4.70;;
7324;SDS011;3703;48.016;7.802;2023-06-14T04:26:20;6.20;;;4.60;;
7324;SDS011;3703;48.016;7.802;2023-06-14T04:28:49;8.50;;;4.70;;
7324;SDS011;3703;48.016;7.802;2023-06-14T04:31:16;6.70;;;5.20;;
7324;SDS011;3703;48.016;7.802;2023-06-14T04:33:45;6.50;;;4.90;;
7324;SDS011;3703;48.016;7.802;2023-06-14T04:36:13;7.30;;;5.27;;
7324;SDS011;3703;48.016;7.802;2023-06-14T04:38:42;7.97;;;4.43;;
7324;SDS011;3703;48.016;7.802;2023-06-14T04:41:11;9.00;;;4.37;;
7324;SDS011;3703;48.016;7.802;2023-06-14T04:43:38;11.20;;;5.37;;
7324;SDS011;3703;48.016;7.802;2023-06-14T04:46:08;8.87;;;4.77;;
7324;SDS011;3703;48.016;7.802;2023-06-14T04:48:36;5.20;;;4.47;;
7324;SDS011;3703;48.016;7.802;2023-06-14T04:51:07;7.47;;;5.00;;
7324;SDS011;3703;48.016;7.802;2023-06-14T04:53:35;6.30;;;4.60;;
7324;SDS011;3703;48.016;7.802;2023-06-14T04:56:02;6.97;;;4.70;;
7324;SDS011;3703;48.016;7.802;2023-06-14T04:58:30;6.27;;;4.77;;
7324;SDS011;3703;48.016;7.802;2023-06-14T05:00:57;7.77;;;4.63;;
7324;SDS011;3703;48.016;7.802;2023-06-14T05:03:27;6.07;;;4.47;;
7324;SDS011;3703;48.016;7.802;2023-06-14T05:05:55;7.03;;;4.90;;
7324;SDS011;3703;48.016;7.802;2023-06-14T05:08:24;11.23;;;6.00;;
7324;SDS011;3703;48.016;7.802;2023-06-14T05:10:52;6.63;;;5.03;;
7324;SDS011;3703;48.016;7.802;2023-06-14T05:13:19;5.10;;;4.50;;
7324;SDS011;3703;48.016;7.802;2023-06-14T05:15:48;6.20;;;4.80;;
7324;SDS011;3703;48.016;7.802;2023-06-14T05:18:15;5.03;;;4.47;;
7324;SDS011;3703;48.016;7.802;2023-06-14T05:20:42;8.60;;;4.63;;
7324;SDS011;3703;48.016;7.802;2023-06-14T05:23:10;6.00;;;4.20;;
7324;SDS011;3703;48.016;7.802;2023-06-14T05:25:42;7.27;;;5.30;;
7324;SDS011;3703;48.016;7.802;2023-06-14T05:28:10;6.93;;;5.17;;
7324;SDS011;3703;48.016;7.802;2023-06-14T05:30:38;11.90;;;6.33;;
7324;SDS011;3703;48.016;7.802;2023-06-14T05:33:05;11.00;;;5.30;;
7324;SDS011;3703;48.016;7.802;2023-06-14T05:35:33;6.83;;;4.87;;
7324;SDS011;3703;48.016;7.802;2023-06-14T05:38:00;7.93;;;4.93;;
7324;SDS011;3703;48.016;7.802;2023-06-14T05:40:27;9.63;;;5.30;;
7324;SDS011;3703;48.016;7.802;2023-06-14T05:42:56;7.60;;;5.10;;
7324;SDS011;3703;48.016;7.802;2023-06-14T05:45:23;9.60;;;5.97;;
7324;SDS011;3703;48.016;7.802;2023-06-14T05:47:50;6.80;;;5.17;;
7324;SDS011;3703;48.016;7.802;2023-06-14T05:50:19;6.93;;;4.47;;
7324;SDS011;3703;48.016;7.802;2023-06-14T05:52:47;7.07;;;4.97;;
7324;SDS011;3703;48.016;7.802;2023-06-14T05:55:15;6.90;;;5.43;;
7324;SDS011;3703;48.016;7.802;2023-06-14T05:57:43;9.67;;;5.50;;
7324;SDS011;3703;48.016;7.802;2023-06-14T06:00:12;6.93;;;4.90;;
7324;SDS011;3703;48.016;7.802;2023-06-14T06:02:41;6.23;;;5.27;;
7324;SDS011;3703;48.016;7.802;2023-06-14T06:05:09;6.23;;;4.90;;
7324;SDS011;3703;48.016;7.802;2023-06-14T06:07:36;5.07;;;4.57;;
7324;SDS011;3703;48.016;7.802;2023-06-14T06:10:05;6.30;;;4.83;;
7324;SDS011;3703;48.016;7.802;2023-06-14T06:12:33;7.03;;;5.33;;
7324;SDS011;3703;48.016;7.802;2023-06-14T06:15:00;6.33;;;5.60;;
7324;SDS011;3703;48.016;7.802;2023-06-14T06:17:29;8.60;;;5.37;;
7324;SDS011;3703;48.016;7.802;2023-06-14T06:19:56;5.87;;;4.77;;
7324;SDS011;3703;48.016;7.802;2023-06-14T06:22:24;8.27;;;5.13;;
7324;SDS011;3703;48.016;7.802;2023-06-14T06:24:51;7.50;;;5.30;;
7324;SDS011;3703;48.016;7.802;2023-06-14T06:27:18;9.07;;;5.10;;
7324;SDS011;3703;48.016;7.802;2023-06-14T06:29:45;6.63;;;5.33;;
7324;SDS011;3703;48.016;7.802;2023-06-14T06:32:13;6.77;;;5.57;;
7324;SDS011;3703;48.016;7.802;2023-06-14T06:34:42;7.83;;;5.30;;
7324;SDS011;3703;48.016;7.802;2023-06-14T06:37:10;6.97;;;5.70;;
7324;SDS011;3703;48.016;7.802;2023-06-14T06:39:37;7.87;;;4.93;;
7324;SDS011;3703;48.016;7.802;2023-06-14T06:42:04;6.57;;;4.90;;
7324;SDS011;3703;48.016;7.802;2023-06-14T06:44:32;6.73;;;5.27;;
7324;SDS011;3703;48.016;7.802;2023-06-14T06:46:59;6.37;;;5.53;;
7324;SDS011;3703;48.016;7.802;2023-06-14T06:49:27;9.40;;;5.60;;
7324;SDS011;3703;48.016;7.802;2023-06-14T06:52:03;6.00;;;5.33;;
7324;SDS011;3703;48.016;7.802;2023-06-14T06:54:32;8.90;;;6.33;;
7324;SDS011;3703;48.016;7.802;2023-06-14T06:57:00;7.53;;;4.90;;
7324;SDS011;3703;48.016;7.802;2023-06-14T06:59:27;9.23;;;6.10;;
7324;SDS011;3703;48.016;7.802;2023-06-14T07:01:55;7.53;;;5.30;;
7324;SDS011;3703;48.016;7.802;2023-06-14T07:04:22;7.17;;;5.43;;
7324;SDS011;3703;48.016;7.802;2023-06-14T07:06:50;7.60;;;4.93;;
7324;SDS011;3703;48.016;7.802;2023-06-14T07:09:19;7.20;;;5.27;;
7324;SDS011;3703;48.016;7.802;2023-06-14T07:11:46;6.53;;;4.93;;
7324;SDS011;3703;48.016;7.802;2023-06-14T07:14:14;7.30;;;5.00;;
7324;SDS011;3703;48.016;7.802;2023-06-14T07:16:41;5.57;;;4.90;;
7324;SDS011;3703;48.016;7.802;2023-06-14T07:19:10;6.20;;;5.10;;
7324;SDS011;3703;48.016;7.802;2023-06-14T07:21:37;9.77;;;5.30;;
7324;SDS011;3703;48.016;7.802;2023-06-14T07:24:08;7.00;;;5.13;;
7324;SDS011;3703;48.016;7.802;2023-06-14T07:26:36;5.57;;;4.97;;
7324;SDS011;3703;48.016;7.802;2023-06-14T07:29:04;6.70;;;5.20;;
7324;SDS011;3703;48.016;7.802;2023-06-14T07:31:31;5.40;;;4.83;;
7324;SDS011;3703;48.016;7.802;2023-06-14T07:33:58;7.00;;;4.77;;
7324;SDS011;3703;48.016;7.802;2023-06-14T07:36:25;5.93;;;5.17;;
7324;SDS011;3703;48.016;7.802;2023-06-14T07:38:53;6.33;;;4.90;;
7324;SDS011;3703;48.016;7.802;2023-06-14T07:41:20;5.77;;;4.83;;
7324;SDS011;3703;48.016;7.802;2023-06-14T07:43:49;27.27;;;8.50;;
7324;SDS011;3703;48.016;7.802;2023-06-14T07:46:16;17.27;;;6.77;;
7324;SDS011;3703;48.016;7.802;2023-06-14T07:48:43;10.87;;;6.07;;
7324;SDS011;3703;48.016;7.802;2023-06-14T07:51:11;13.97;;;7.10;;
7324;SDS011;3703;48.016;7.802;2023-06-14T07:53:38;13.97;;;6.00;;
7324;SDS011;3703;48.016;7.802;2023-06-14T07:56:07;11.97;;;5.80;;
7324;SDS011;3703;48.016;7.802;2023-06-14T07:58:34;16.07;;;8.27;;
7324;SDS011;3703;48.016;7.802;2023-06-14T08:01:03;46.27;;;18.23;;
7324;SDS011;3703;48.016;7.802;2023-06-14T08:03:33;98.80;;;29.40;;
7324;SDS011;3703;48.016;7.802;2023-06-14T08:06:00;47.37;;;18.50;;
7324;SDS011;3703;48.016;7.802;2023-06-14T08:08:29;39.03;;;16.37;;
7324;SDS011;3703;48.016;7.802;2023-06-14T08:10:56;39.40;;;15.87;;
7324;SDS011;3703;48.016;7.802;2023-06-14T08:13:23;27.70;;;9.93;;
7324;SDS011;3703;48.016;7.802;2023-06-14T08:15:51;29.27;;;11.63;;
7324;SDS011;3703;48.016;7.802;2023-06-14T08:18:19;29.03;;;13.47;;
7324;SDS011;3703;48.016;7.802;2023-06-14T08:20:46;42.23;;;17.93;;
7324;SDS011;3703;48.016;7.802;2023-06-14T08:23:15;16.40;;;8.43;;
7324;SDS011;3703;48.016;7.802;2023-06-14T08:25:44;19.00;;;9.73;;
7324;SDS011;3703;48.016;7.802;2023-06-14T08:28:11;18.37;;;9.73;;
7324;SDS011;3703;48.016;7.802;2023-06-14T08:30:38;11.70;;;7.93;;
7324;SDS011;3703;48.016;7.802;2023-06-14T08:33:06;12.37;;;8.43;;
7324;SDS011;3703;48.016;7.802;2023-06-14T08:35:34;14.27;;;8.23;;
7324;SDS011;3703;48.016;7.802;2023-06-14T08:38:02;17.50;;;9.43;;
7324;SDS011;3703;48.016;7.802;2023-06-14T08:40:30;12.20;;;7.33;;
7324;SDS011;3703;48.016;7.802;2023-06-14T08:42:57;12.77;;;7.90;;
7324;SDS011;3703;48.016;7.802;2023-06-14T08:45:25;20.90;;;9.87;;
7324;SDS011;3703;48.016;7.802;2023-06-14T08:47:53;14.90;;;7.77;;
7324;SDS011;3703;48.016;7.802;2023-06-14T08:50:23;9.80;;;6.87;;
7324;SDS011;3703;48.016;7.802;2023-06-14T08:52:57;13.93;;;7.23;;
7324;SDS011;3703;48.016;7.802;2023-06-14T08:55:27;8.83;;;6.10;;
7324;SDS011;3703;48.016;7.802;2023-06-14T08:57:56;7.97;;;5.47;;
7324;SDS011;3703;48.016;7.802;2023-06-14T09:00:24;13.23;;;7.70;;
7324;SDS011;3703;48.016;7.802;2023-06-14T09:02:53;11.20;;;7.07;;
7324;SDS011;3703;48.016;7.802;2023-06-14T09:05:22;10.97;;;6.70;;
7324;SDS011;3703;48.016;7.802;2023-06-14T09:07:50;8.10;;;6.30;;
7324;SDS011;3703;48.016;7.802;2023-06-14T09:10:21;9.60;;;6.57;;
7324;SDS011;3703;48.016;7.802;2023-06-14T09:12:51;9.67;;;6.83;;
7324;SDS011;3703;48.016;7.802;2023-06-14T09:15:18;6.77;;;5.30;;
7324;SDS011;3703;48.016;7.802;2023-06-14T09:17:45;7.57;;;6.67;;
7324;SDS011;3703;48.016;7.802;2023-06-14T09:20:13;6.37;;;5.40;;
7324;SDS011;3703;48.016;7.802;2023-06-14T09:22:43;6.80;;;5.40;;
7324;SDS011;3703;48.016;7.802;2023-06-14T09:25:11;10.90;;;6.50;;
7324;SDS011;3703;48.016;7.802;2023-06-14T09:27:42;8.93;;;5.77;;
7324;SDS011;3703;48.016;7.802;2023-06-14T09:30:09;8.20;;;6.00;;
7324;SDS011;3703;48.016;7.802;2023-06-14T09:32:38;7.83;;;5.30;;
7324;SDS011;3703;48.016;7.802;2023-06-14T09:35:06;7.23;;;5.97;;
7324;SDS011;3703;48.016;7.802;2023-06-14T09:37:35;6.07;;;5.23;;
7324;SDS011;3703;48.016;7.802;2023-06-14T09:40:04;7.93;;;6.30;;
7324;SDS011;3703;48.016;7.802;2023-06-14T09:42:33;7.63;;;5.23;;
7324;SDS011;3703;48.016;7.802;2023-06-14T09:45:02;9.50;;;7.43;;
7324;SDS011;3703;48.016;7.802;2023-06-14T09:47:31;6.77;;;5.70;;
7324;SDS011;3703;48.016;7.802;2023-06-14T09:49:58;12.57;;;5.83;;
7324;SDS011;3703;48.016;7.802;2023-06-14T09:52:25;7.87;;;4.90;;
7324;SDS011;3703;48.016;7.802;2023-06-14T09:54:55;10.00;;;5.57;;
7324;SDS011;3703;48.016;7.802;2023-06-14T09:57:26;10.87;;;6.10;;
7324;SDS011;3703;48.016;7.802;2023-06-14T09:59:58;6.50;;;5.13;;
7324;SDS011;3703;48.016;7.802;2023-06-14T10:02:36;9.87;;;6.67;;
7324;SDS011;3703;48.016;7.802;2023-06-14T10:05:04;7.37;;;5.60;;
7324;SDS011;3703;48.016;7.802;2023-06-14T10:07:35;7.37;;;4.87;;
7324;SDS011;3703;48.016;7.802;2023-06-14T10:10:09;8.33;;;5.80;;
7324;SDS011;3703;48.016;7.802;2023-06-14T10:12:36;7.80;;;4.90;;
7324;SDS011;3703;48.016;7.802;2023-06-14T10:15:07;11.97;;;5.97;;
7324;SDS011;3703;48.016;7.802;2023-06-14T10:17:42;13.73;;;6.50;;
7324;SDS011;3703;48.016;7.802;2023-06-14T10:20:18;18.27;;;6.83;;
7324;SDS011;3703;48.016;7.802;2023-06-14T10:22:56;9.50;;;5.27;;
7324;SDS011;3703;48.016;7.802;2023-06-14T10:25:30;12.23;;;6.57;;
7324;SDS011;3703;48.016;7.802;2023-06-14T10:28:17;7.27;;;5.67;;
7324;SDS011;3703;48.016;7.802;2023-06-14T10:31:05;7.27;;;5.67;;
7324;SDS011;3703;48.016;7.802;2023-06-14T10:33:34;7.77;;;5.53;;
7324;SDS011;3703;48.016;7.802;2023-06-14T10:36:09;8.63;;;5.20;;
7324;SDS011;3703;48.016;7.802;2023-06-14T10:38:56;6.33;;;5.23;;
7324;SDS011;3703;48.016;7.802;2023-06-14T10:41:26;7.13;;;5.20;;
7324;SDS011;3703;48.016;7.802;2023-06-14T10:47:09;6.57;;;5.23;;
7324;SDS011;3703;48.016;7.802;2023-06-14T10:49:49;7.87;;;5.00;;
7324;SDS011;3703;48.016;7.802;2023-06-14T10:52:21;8.90;;;5.60;;
7324;SDS011;3703;48.016;7.802;2023-06-14T10:55:03;6.60;;;5.47;;
7324;SDS011;3703;48.016;7.802;2023-06-14T10:57:37;6.57;;;5.00;;
7324;SDS011;3703;48.016;7.802;2023-06-14T11:00:06;7.87;;;5.33;;
7324;SDS011;3703;48.016;7.802;2023-06-14T11:02:48;7.27;;;5.60;;
7324;SDS011;3703;48.016;7.802;2023-06-14T11:05:53;6.97;;;4.90;;
7324;SDS011;3703;48.016;7.802;2023-06-14T11:08:35;7.50;;;5.37;;
7324;SDS011;3703;48.016;7.802;2023-06-14T11:11:31;12.60;;;5.37;;
7324;SDS011;3703;48.016;7.802;2023-06-14T11:14:00;7.40;;;5.60;;
7324;SDS011;3703;48.016;7.802;2023-06-14T11:16:28;5.47;;;4.97;;
7324;SDS011;3703;48.016;7.802;2023-06-14T11:18:59;5.97;;;4.67;;
7324;SDS011;3703;48.016;7.802;2023-06-14T11:21:28;6.80;;;6.10;;
7324;SDS011;3703;48.016;7.802;2023-06-14T11:23:56;9.70;;;6.17;;
7324;SDS011;3703;48.016;7.802;2023-06-14T11:26:24;10.37;;;5.50;;
7324;SDS011;3703;48.016;7.802;2023-06-14T11:28:54;9.23;;;5.17;;
7324;SDS011;3703;48.016;7.802;2023-06-14T11:31:23;8.30;;;5.00;;
7324;SDS011;3703;48.016;7.802;2023-06-14T11:33:53;11.23;;;5.60;;
7324;SDS011;3703;48.016;7.802;2023-06-14T11:36:23;7.53;;;5.73;;
7324;SDS011;3703;48.016;7.802;2023-06-14T11:38:57;5.93;;;4.87;;
7324;SDS011;3703;48.016;7.802;2023-06-14T11:41:31;7.17;;;5.97;;
7324;SDS011;3703;48.016;7.802;2023-06-14T11:44:00;10.13;;;6.10;;
7324;SDS011;3703;48.016;7.802;2023-06-14T11:46:28;10.93;;;5.93;;
7324;SDS011;3703;48.016;7.802;2023-06-14T11:48:56;8.10;;;5.30;;
7324;SDS011;3703;48.016;7.802;2023-06-14T11:51:25;6.40;;;5.80;;
7324;SDS011;3703;48.016;7.802;2023-06-14T11:53:52;9.63;;;5.60;;
7324;SDS011;3703;48.016;7.802;2023-06-14T11:56:20;8.83;;;5.43;;
7324;SDS011;3703;48.016;7.802;2023-06-14T11:58:47;9.20;;;5.50;;
7324;SDS011;3703;48.016;7.802;2023-06-14T12:01:16;9.30;;;5.50;;
7324;SDS011;3703;48.016;7.802;2023-06-14T12:03:49;8.60;;;5.83;;
7324;SDS011;3703;48.016;7.802;2023-06-14T12:06:24;7.43;;;5.70;;
7324;SDS011;3703;48.016;7.802;2023-06-14T12:08:58;9.37;;;5.50;;
7324;SDS011;3703;48.016;7.802;2023-06-14T12:11:31;7.77;;;5.50;;
7324;SDS011;3703;48.016;7.802;2023-06-14T12:13:59;7.60;;;6.17;;
7324;SDS011;3703;48.016;7.802;2023-06-14T12:16:30;13.37;;;5.63;;
7324;SDS011;3703;48.016;7.802;2023-06-14T12:19:09;6.40;;;5.57;;
7324;SDS011;3703;48.016;7.802;2023-06-14T12:21:42;6.87;;;5.03;;
7324;SDS011;3703;48.016;7.802;2023-06-14T12:24:13;6.87;;;5.17;;
7324;SDS011;3703;48.016;7.802;2023-06-14T12:26:41;9.67;;;5.50;;
7324;SDS011;3703;48.016;7.802;2023-06-14T12:29:08;5.87;;;4.80;;
7324;SDS011;3703;48.016;7.802;2023-06-14T12:31:37;7.97;;;5.03;;
7324;SDS011;3703;48.016;7.802;2023-06-14T12:34:04;5.67;;;4.93;;
7324;SDS011;3703;48.016;7.802;2023-06-14T12:36:32;7.73;;;5.03;;
7324;SDS011;3703;48.016;7.802;2023-06-14T12:39:02;6.90;;;5.00;;
7324;SDS011;3703;48.016;7.802;2023-06-14T12:41:29;9.10;;;5.20;;
7324;SDS011;3703;48.016;7.802;2023-06-14T12:43:57;7.43;;;5.23;;
7324;SDS011;3703;48.016;7.802;2023-06-14T12:46:25;9.50;;;5.30;;
7324;SDS011;3703;48.016;7.802;2023-06-14T12:48:52;17.43;;;6.43;;
7324;SDS011;3703;48.016;7.802;2023-06-14T12:51:19;6.77;;;5.20;;
7324;SDS011;3703;48.016;7.802;2023-06-14T12:53:47;7.07;;;5.73;;
7324;SDS011;3703;48.016;7.802;2023-06-14T12:56:16;10.40;;;5.47;;
7324;SDS011;3703;48.016;7.802;2023-06-14T12:58:44;8.13;;;6.17;;
7324;SDS011;3703;48.016;7.802;2023-06-14T13:01:11;17.97;;;5.80;;
7324;SDS011;3703;48.016;7.802;2023-06-14T13:03:39;9.43;;;5.97;;
7324;SDS011;3703;48.016;7.802;2023-06-14T13:06:06;6.07;;;5.40;;
7324;SDS011;3703;48.016;7.802;2023-06-14T13:08:34;8.47;;;5.40;;
7324;SDS011;3703;48.016;7.802;2023-06-14T13:11:01;8.50;;;5.37;;
7324;SDS011;3703;48.016;7.802;2023-06-14T13:13:30;7.13;;;5.43;;
7324;SDS011;3703;48.016;7.802;2023-06-14T13:15:58;6.90;;;5.50;;
7324;SDS011;3703;48.016;7.802;2023-06-14T13:18:25;11.13;;;6.00;;
7324;SDS011;3703;48.016;7.802;2023-06-14T13:20:52;6.10;;;4.47;;
7324;SDS011;3703;48.016;7.802;2023-06-14T13:23:20;8.30;;;5.53;;
7324;SDS011;3703;48.016;7.802;2023-06-14T13:25:47;10.10;;;5.50;;
7324;SDS011;3703;48.016;7.802;2023-06-14T13:28:16;6.50;;;5.20;;
7324;SDS011;3703;48.016;7.802;2023-06-14T13:30:45;6.27;;;5.33;;
7324;SDS011;3703;48.016;7.802;2023-06-14T13:33:12;9.07;;;5.67;;
7324;SDS011;3703;48.016;7.802;2023-06-14T13:35:40;9.97;;;5.57;;
7324;SDS011;3703;48.016;7.802;2023-06-14T13:38:08;7.90;;;6.33;;
7324;SDS011;3703;48.016;7.802;2023-06-14T13:40:36;8.77;;;5.57;;
7324;SDS011;3703;48.016;7.802;2023-06-14T13:43:03;10.17;;;5.43;;
7324;SDS011;3703;48.016;7.802;2023-06-14T13:45:30;6.17;;;5.20;;
7324;SDS011;3703;48.016;7.802;2023-06-14T13:47:59;9.87;;;6.17;;
7324;SDS011;3703;48.016;7.802;2023-06-14T13:50:26;11.53;;;6.20;;
7324;SDS011;3703;48.016;7.802;2023-06-14T13:52:53;11.03;;;5.90;;
7324;SDS011;3703;48.016;7.802;2023-06-14T13:55:21;5.97;;;5.30;;
7324;SDS011;3703;48.016;7.802;2023-06-14T13:57:48;11.93;;;5.70;;
7324;SDS011;3703;48.016;7.802;2023-06-14T14:00:16;9.03;;;6.20;;
7324;SDS011;3703;48.016;7.802;2023-06-14T14:02:45;6.47;;;5.23;;
7324;SDS011;3703;48.016;7.802;2023-06-14T14:05:13;6.47;;;5.10;;
7324;SDS011;3703;48.016;7.802;2023-06-14T14:07:41;5.80;;;4.57;;
7324;SDS011;3703;48.016;7.802;2023-06-14T14:10:08;7.10;;;5.10;;
7324;SDS011;3703;48.016;7.802;2023-06-14T14:12:38;7.27;;;5.20;;
7324;SDS011;3703;48.016;7.802;2023-06-14T14:15:05;8.70;;;5.57;;
7324;SDS011;3703;48.016;7.802;2023-06-14T14:17:37;6.57;;;5.70;;
7324;SDS011;3703;48.016;7.802;2023-06-14T14:20:05;7.50;;;5.50;;
7324;SDS011;3703;48.016;7.802;2023-06-14T14:22:35;6.60;;;5.40;;
7324;SDS011;3703;48.016;7.802;2023-06-14T14:25:02;6.03;;;5.20;;
7324;SDS011;3703;48.016;7.802;2023-06-14T14:27:30;10.90;;;6.20;;
7324;SDS011;3703;48.016;7.802;2023-06-14T14:29:57;8.33;;;4.80;;
7324;SDS011;3703;48.016;7.802;2023-06-14T14:32:24;5.20;;;4.63;;
7324;SDS011;3703;48.016;7.802;2023-06-14T14:34:51;6.40;;;4.60;;
7324;SDS011;3703;48.016;7.802;2023-06-14T14:37:18;6.10;;;5.00;;
7324;SDS011;3703;48.016;7.802;2023-06-14T14:39:47;6.13;;;4.73;;
7324;SDS011;3703;48.016;7.802;2023-06-14T14:42:14;7.47;;;4.67;;
7324;SDS011;3703;48.016;7.802;2023-06-14T14:44:42;9.83;;;5.17;;
7324;SDS011;3703;48.016;7.802;2023-06-14T14:47:09;7.73;;;4.57;;
7324;SDS011;3703;48.016;7.802;2023-06-14T14:49:36;6.33;;;5.00;;
7324;SDS011;3703;48.016;7.802;2023-06-14T14:52:04;6.70;;;5.00;;
7324;SDS011;3703;48.016;7.802;2023-06-14T14:54:32;8.27;;;4.97;;
7324;SDS011;3703;48.016;7.802;2023-06-14T14:57:01;5.63;;;5.00;;
7324;SDS011;3703;48.016;7.802;2023-06-14T14:59:28;5.43;;;4.53;;
7324;SDS011;3703;48.016;7.802;2023-06-14T15:01:56;6.57;;;4.70;;
7324;SDS011;3703;48.016;7.802;2023-06-14T15:04:23;5.60;;;4.43;;
7324;SDS011;3703;48.016;7.802;2023-06-14T15:06:50;5.07;;;4.57;;
7324;SDS011;3703;48.016;7.802;2023-06-14T15:09:17;6.70;;;4.60;;
7324;SDS011;3703;48.016;7.802;2023-06-14T15:11:44;5.97;;;4.90;;
7324;SDS011;3703;48.016;7.802;2023-06-14T15:14:13;6.00;;;4.60;;
7324;SDS011;3703;48.016;7.802;2023-06-14T15:16:41;4.73;;;4.30;;
7324;SDS011;3703;48.016;7.802;2023-06-14T15:19:08;8.33;;;4.83;;
7324;SDS011;3703;48.016;7.802;2023-06-14T15:21:35;5.30;;;4.47;;
7324;SDS011;3703;48.016;7.802;2023-06-14T15:24:02;8.03;;;5.03;;
7324;SDS011;3703;48.016;7.802;2023-06-14T15:26:30;6.13;;;4.40;;